createdAt,value
2023-03-07T00:01:30.738Z,0.14
2023-03-07T00:03:58.618Z,0.16
2023-03-07T00:06:26.359Z,0.21
2023-03-07T00:08:56.240Z,0.26
2023-03-07T00:11:23.627Z,0.29
2023-03-07T00:13:50.901Z,0.28
2023-03-07T00:16:21.313Z,0.30
2023-03-07T00:18:49.149Z,0.31
2023-03-07T00:21:19.853Z,0.29
2023-03-07T00:23:47.699Z,0.25
2023-03-07T00:26:18.034Z,0.22
2023-03-07T00:28:47.394Z,0.19
2023-03-07T00:31:14.844Z,0.17
2023-03-07T00:33:41.917Z,0.18
2023-03-07T00:36:13.964Z,0.17
2023-03-07T00:38:42.399Z,0.17
2023-03-07T00:41:14.747Z,0.17
2023-03-07T00:43:41.820Z,0.12
2023-03-07T00:46:09.643Z,0.10
2023-03-07T00:48:38.705Z,0.06
2023-03-07T00:51:08.084Z,-0.01
2023-03-07T00:53:35.251Z,-0.07
2023-03-07T00:56:05.968Z,-0.09
2023-03-07T00:58:36.004Z,-0.11
2023-03-07T01:01:05.796Z,-0.08
2023-03-07T01:03:34.097Z,-0.07
2023-03-07T01:06:09.685Z,-0.05
2023-03-07T01:08:36.711Z,0.00
2023-03-07T01:11:06.190Z,0.02
2023-03-07T01:13:34.174Z,0.05
2023-03-07T01:16:29.378Z,0.08
2023-03-07T01:18:59.424Z,0.11
2023-03-07T01:21:32.794Z,0.14
2023-03-07T01:23:59.936Z,0.18
2023-03-07T01:26:30.208Z,0.17
2023-03-07T01:28:59.211Z,0.18
2023-03-07T01:31:27.199Z,0.18
2023-03-07T01:33:54.715Z,0.20
2023-03-07T01:36:31.274Z,0.19
2023-03-07T01:39:06.731Z,0.19
2023-03-07T01:41:35.868Z,0.21
2023-03-07T01:44:05.756Z,0.23
2023-03-07T01:46:42.862Z,0.21
2023-03-07T01:49:36.565Z,0.20
2023-03-07T01:52:09.506Z,0.22
2023-03-07T01:54:41.621Z,0.23
2023-03-07T01:57:09.561Z,0.26
2023-03-07T01:59:42.569Z,0.23
2023-03-07T02:02:13.429Z,0.24
2023-03-07T02:04:54.772Z,0.20
2023-03-07T02:07:25.143Z,0.18
2023-03-07T02:09:53.908Z,0.14
2023-03-07T02:12:23.073Z,0.09
2023-03-07T02:14:51.758Z,0.05
2023-03-07T02:17:20.099Z,0.01
2023-03-07T02:20:11.831Z,-0.06
2023-03-07T02:22:40.828Z,-0.11
2023-03-07T02:25:38.998Z,-0.20
2023-03-07T02:28:09.518Z,-0.22
2023-03-07T02:30:52.111Z,-0.21
2023-03-07T02:33:19.374Z,-0.23
2023-03-07T02:35:47.495Z,-0.23
2023-03-07T02:38:14.708Z,-0.21
2023-03-07T02:40:41.691Z,-0.19
2023-03-07T02:43:09.762Z,-0.19
2023-03-07T02:45:36.681Z,-0.18
2023-03-07T02:48:03.988Z,-0.19
2023-03-07T02:50:30.882Z,-0.22
2023-03-07T02:52:58.105Z,-0.21
2023-03-07T02:55:25.126Z,-0.20
2023-03-07T02:57:53.831Z,-0.21
2023-03-07T03:00:21.014Z,-0.22
2023-03-07T03:02:48.187Z,-0.19
2023-03-07T03:05:15.235Z,-0.18
2023-03-07T03:07:42.404Z,-0.18
2023-03-07T03:10:09.801Z,-0.16
2023-03-07T03:12:37.275Z,-0.15
2023-03-07T03:15:04.596Z,-0.13
2023-03-07T03:17:31.840Z,-0.12
2023-03-07T03:19:58.814Z,-0.12
2023-03-07T03:22:26.006Z,-0.11
2023-03-07T03:24:52.820Z,-0.11
2023-03-07T03:27:20.079Z,-0.10
2023-03-07T03:29:47.071Z,-0.09
2023-03-07T03:32:14.289Z,-0.08
2023-03-07T03:34:41.249Z,-0.06
2023-03-07T03:37:08.429Z,-0.04
2023-03-07T03:39:35.336Z,-0.01
2023-03-07T03:42:02.650Z,0.02
2023-03-07T03:44:29.938Z,0.06
2023-03-07T03:46:57.193Z,0.08
2023-03-07T03:49:24.305Z,0.11
2023-03-07T03:51:51.602Z,0.10
2023-03-07T03:54:18.547Z,0.12
2023-03-07T03:56:45.757Z,0.13
2023-03-07T03:59:12.682Z,0.16
2023-03-07T04:01:39.898Z,0.18
2023-03-07T04:04:06.901Z,0.18
2023-03-07T04:06:35.528Z,0.14
2023-03-07T04:09:04.926Z,0.12
2023-03-07T04:11:32.756Z,0.11
2023-03-07T04:13:59.690Z,0.08
2023-03-07T04:16:27.447Z,0.02
2023-03-07T04:18:54.494Z,-0.04
2023-03-07T04:21:22.300Z,-0.12
2023-03-07T04:23:50.557Z,-0.17
2023-03-07T04:26:17.766Z,-0.19
2023-03-07T04:28:49.570Z,-0.24
2023-03-07T04:31:19.343Z,-0.27
2023-03-07T04:33:47.054Z,-0.29
2023-03-07T04:36:16.357Z,-0.33
2023-03-07T04:38:43.533Z,-0.38
2023-03-07T04:41:14.962Z,-0.43
2023-03-07T04:43:41.962Z,-0.37
2023-03-07T04:46:11.252Z,-0.40
2023-03-07T04:48:38.152Z,-0.38
2023-03-07T04:51:05.661Z,-0.36
2023-03-07T04:53:32.610Z,-0.35
2023-03-07T04:56:04.532Z,-0.32
2023-03-07T04:58:32.027Z,-0.29
2023-03-07T05:01:01.299Z,-0.29
2023-03-07T05:03:28.562Z,-0.26
2023-03-07T05:05:55.845Z,-0.24
2023-03-07T05:08:23.093Z,-0.20
2023-03-07T05:10:50.776Z,-0.20
2023-03-07T05:13:18.055Z,-0.16
2023-03-07T05:15:51.200Z,-0.13
2023-03-07T05:18:18.196Z,-0.06
2023-03-07T05:20:45.512Z,-0.02
2023-03-07T05:23:12.355Z,0.04
2023-03-07T05:25:39.563Z,0.09
2023-03-07T05:28:06.584Z,0.13
2023-03-07T05:30:33.444Z,0.16
2023-03-07T05:33:00.612Z,0.23
2023-03-07T05:35:27.504Z,0.23
2023-03-07T05:37:54.806Z,0.27
2023-03-07T05:40:22.100Z,0.29
2023-03-07T05:42:49.320Z,0.29
2023-03-07T05:45:16.226Z,0.32
2023-03-07T05:47:43.668Z,0.33
2023-03-07T05:50:11.281Z,0.34
2023-03-07T05:52:38.432Z,0.38
2023-03-07T05:55:06.149Z,0.35
2023-03-07T05:57:33.316Z,0.37
2023-03-07T06:00:00.254Z,0.38
2023-03-07T06:02:27.615Z,0.39
2023-03-07T06:04:54.606Z,0.41
2023-03-07T06:07:21.772Z,0.45
2023-03-07T06:09:48.686Z,0.49
2023-03-07T06:12:15.878Z,0.56
2023-03-07T06:14:42.781Z,0.58
2023-03-07T06:17:10.032Z,0.65
2023-03-07T06:19:36.906Z,0.69
2023-03-07T06:22:04.073Z,0.70
2023-03-07T06:24:30.990Z,0.74
2023-03-07T06:26:59.009Z,0.79
2023-03-07T06:29:25.890Z,0.85
2023-03-07T06:31:53.137Z,0.88
2023-03-07T06:34:19.990Z,0.92
2023-03-07T06:36:48.698Z,0.95
2023-03-07T06:39:21.097Z,0.99
2023-03-07T06:41:49.512Z,1.03
2023-03-07T06:44:19.363Z,1.08
2023-03-07T06:46:46.591Z,1.13
2023-03-07T06:49:13.785Z,1.20
2023-03-07T06:51:41.009Z,1.32
2023-03-07T06:54:07.895Z,1.39
2023-03-07T06:56:35.938Z,1.43
2023-03-07T06:59:02.931Z,1.48
2023-03-07T07:01:30.515Z,1.56
2023-03-07T07:03:58.061Z,1.69
2023-03-07T07:06:25.256Z,1.82
2023-03-07T07:08:56.866Z,2.07
2023-03-07T07:11:25.458Z,2.31
2023-03-07T07:13:52.377Z,2.56
2023-03-07T07:16:20.016Z,2.85
2023-03-07T07:18:47.102Z,2.86
2023-03-07T07:21:14.293Z,2.78
2023-03-07T07:23:41.427Z,2.73
2023-03-07T07:26:08.961Z,2.63
2023-03-07T07:28:35.962Z,2.61
2023-03-07T07:31:04.170Z,2.68
2023-03-07T07:33:31.939Z,2.94
2023-03-07T07:35:59.624Z,3.17
2023-03-07T07:38:26.568Z,3.30
2023-03-07T07:40:53.930Z,3.58
2023-03-07T07:43:20.892Z,4.25
2023-03-07T07:45:48.321Z,4.82
2023-03-07T07:48:15.604Z,5.26
2023-03-07T07:50:42.886Z,5.67
2023-03-07T07:53:10.107Z,6.05
2023-03-07T07:55:37.337Z,6.34
2023-03-07T07:58:04.284Z,6.63
2023-03-07T08:00:32.174Z,6.58
2023-03-07T08:02:59.713Z,6.26
2023-03-07T08:05:26.946Z,6.17
2023-03-07T08:07:53.812Z,6.08
2023-03-07T08:10:20.957Z,5.92
2023-03-07T08:12:52.678Z,5.63
2023-03-07T08:15:23.694Z,5.61
2023-03-07T08:17:51.550Z,5.52
2023-03-07T08:20:22.313Z,5.33
2023-03-07T08:22:50.691Z,5.33
2023-03-07T08:25:21.809Z,5.31
2023-03-07T08:27:53.061Z,5.33
2023-03-07T08:30:23.964Z,5.32
2023-03-07T08:32:53.140Z,5.37
2023-03-07T08:35:21.024Z,5.35
2023-03-07T08:37:49.236Z,5.48
2023-03-07T08:40:16.732Z,5.66
2023-03-07T08:42:43.733Z,5.88
2023-03-07T08:45:11.126Z,6.29
2023-03-07T08:47:38.042Z,6.62
2023-03-07T08:50:05.862Z,7.01
2023-03-07T08:52:32.997Z,7.41
2023-03-07T08:55:00.273Z,7.82
2023-03-07T08:57:27.294Z,8.56
2023-03-07T08:59:54.540Z,9.23
2023-03-07T09:02:21.528Z,9.74
2023-03-07T09:04:48.777Z,10.42
2023-03-07T09:07:15.709Z,10.77
2023-03-07T09:09:43.214Z,10.80
2023-03-07T09:12:10.557Z,10.94
2023-03-07T09:14:37.743Z,11.06
2023-03-07T09:17:04.784Z,11.12
2023-03-07T09:19:32.091Z,11.20
2023-03-07T09:21:58.988Z,11.73
2023-03-07T09:24:26.730Z,11.81
2023-03-07T09:26:53.594Z,11.82
2023-03-07T09:29:20.777Z,12.00
2023-03-07T09:31:47.866Z,12.44
2023-03-07T09:34:15.954Z,12.92
2023-03-07T09:36:43.006Z,13.30
2023-03-07T09:39:14.522Z,12.71
2023-03-07T09:42:06.987Z,12.80
2023-03-07T09:44:58.980Z,11.67
2023-03-07T09:47:37.931Z,10.77
2023-03-07T09:50:11.380Z,10.47
2023-03-07T09:52:40.956Z,10.50
2023-03-07T09:55:19.212Z,9.94
2023-03-07T09:57:56.196Z,10.14
2023-03-07T10:00:40.490Z,10.15
2023-03-07T10:03:41.798Z,10.37
2023-03-07T10:06:26.334Z,10.55
2023-03-07T10:08:55.522Z,10.04
2023-03-07T10:11:50.599Z,9.46
2023-03-07T10:14:28.908Z,8.73
2023-03-07T10:17:43.704Z,8.05
2023-03-07T10:20:24.404Z,8.01
2023-03-07T10:23:03.564Z,8.64
2023-03-07T10:25:46.156Z,9.55
2023-03-07T10:28:30.284Z,9.87
2023-03-07T10:31:02.696Z,9.80
2023-03-07T10:33:31.034Z,10.09
2023-03-07T10:36:06.216Z,10.18
2023-03-07T10:38:48.656Z,10.43
2023-03-07T10:41:21.035Z,10.76
2023-03-07T10:43:50.164Z,11.22
2023-03-07T10:46:27.593Z,11.20
2023-03-07T10:49:09.594Z,11.15
2023-03-07T10:52:08.125Z,11.02
2023-03-07T10:54:37.429Z,10.81
2023-03-07T10:57:15.550Z,10.91
2023-03-07T10:59:50.245Z,10.79
2023-03-07T11:02:44.751Z,9.95
2023-03-07T11:05:24.183Z,9.54
2023-03-07T11:07:51.111Z,9.18
2023-03-07T11:10:33.285Z,9.06
2023-03-07T11:13:20.601Z,9.11
2023-03-07T11:15:49.191Z,8.82
2023-03-07T11:18:31.304Z,8.71
2023-03-07T11:20:59.552Z,8.98
2023-03-07T11:23:31.512Z,9.49
2023-03-07T11:26:16.180Z,9.71
2023-03-07T11:28:43.490Z,9.93
2023-03-07T11:31:38.129Z,10.08
2023-03-07T11:34:26.638Z,9.85
2023-03-07T11:37:12.132Z,9.84
2023-03-07T11:39:42.600Z,9.72
2023-03-07T11:42:22.612Z,9.71
2023-03-07T11:44:54.531Z,9.96
2023-03-07T11:48:11.415Z,10.04
2023-03-07T11:50:43.062Z,10.25
2023-03-07T11:54:08.820Z,10.66
2023-03-07T11:56:41.068Z,10.75
2023-03-07T11:59:45.378Z,10.74
2023-03-07T12:02:33.903Z,11.03
2023-03-07T12:05:25.383Z,10.48
2023-03-07T12:08:24.865Z,10.45
2023-03-07T12:11:40.162Z,10.65
2023-03-07T12:14:28.500Z,10.76
2023-03-07T12:17:32.363Z,11.44
2023-03-07T12:20:15.201Z,11.83
2023-03-07T12:22:56.503Z,12.06
2023-03-07T12:25:29.320Z,11.81
2023-03-07T12:27:56.469Z,11.31
2023-03-07T12:30:34.998Z,10.76
2023-03-07T12:33:04.004Z,10.57
2023-03-07T12:35:45.232Z,10.79
2023-03-07T12:38:36.465Z,10.88
2023-03-07T12:41:41.101Z,11.02
2023-03-07T12:44:18.107Z,11.22
2023-03-07T12:46:54.042Z,10.88
2023-03-07T12:49:24.432Z,10.44
2023-03-07T12:51:57.745Z,10.38
2023-03-07T12:54:30.440Z,10.38
2023-03-07T12:57:08.740Z,10.20
2023-03-07T12:59:39.316Z,10.09
2023-03-07T13:02:20.343Z,10.16
2023-03-07T13:04:47.639Z,10.17
2023-03-07T13:07:26.601Z,9.90
2023-03-07T13:09:54.907Z,9.77
2023-03-07T13:12:34.587Z,9.73
2023-03-07T13:15:17.868Z,9.70
2023-03-07T13:17:44.724Z,9.69
2023-03-07T13:20:14.896Z,9.45
2023-03-07T13:22:41.735Z,9.45
2023-03-07T13:25:21.323Z,9.27
2023-03-07T13:27:55.679Z,8.75
2023-03-07T13:30:25.049Z,8.48
2023-03-07T13:32:51.952Z,7.99
2023-03-07T13:35:31.209Z,7.52
2023-03-07T13:38:08.303Z,7.21
2023-03-07T13:40:35.456Z,7.06
2023-03-07T13:43:04.175Z,6.88
2023-03-07T13:45:37.529Z,6.81
2023-03-07T13:48:05.947Z,6.82
2023-03-07T13:50:36.253Z,6.77
2023-03-07T13:53:09.136Z,6.75
2023-03-07T13:56:01.386Z,6.70
2023-03-07T13:58:33.251Z,6.65
2023-03-07T14:01:14.915Z,6.63
2023-03-07T14:03:52.885Z,6.64
2023-03-07T14:06:26.757Z,6.74
2023-03-07T14:08:55.139Z,6.80
2023-03-07T14:11:40.992Z,6.76
2023-03-07T14:14:15.853Z,6.79
2023-03-07T14:17:04.407Z,6.74
2023-03-07T14:19:54.162Z,6.70
2023-03-07T14:22:41.082Z,6.66
2023-03-07T14:25:27.934Z,6.57
2023-03-07T14:27:59.481Z,6.48
2023-03-07T14:30:30.347Z,6.47
2023-03-07T14:32:58.508Z,6.40
2023-03-07T14:35:34.600Z,6.30
2023-03-07T14:38:02.386Z,6.13
2023-03-07T14:41:17.405Z,6.03
2023-03-07T14:43:53.056Z,5.98
2023-03-07T14:46:28.645Z,5.95
2023-03-07T14:49:20.613Z,5.97
2023-03-07T14:51:47.653Z,5.91
2023-03-07T14:54:19.726Z,5.82
2023-03-07T14:57:06.765Z,5.79
2023-03-07T14:59:33.973Z,5.74
2023-03-07T15:02:00.923Z,5.70
2023-03-07T15:04:32.470Z,5.71
2023-03-07T15:07:01.897Z,5.75
2023-03-07T15:09:30.458Z,5.75
2023-03-07T15:12:12.792Z,5.78
2023-03-07T15:14:45.250Z,5.78
2023-03-07T15:17:20.866Z,5.77
2023-03-07T15:19:54.448Z,5.68
2023-03-07T15:22:39.507Z,5.58
2023-03-07T15:25:18.661Z,5.48
2023-03-07T15:27:45.690Z,5.33
2023-03-07T15:30:25.074Z,5.30
2023-03-07T15:33:14.051Z,5.19
2023-03-07T15:35:42.154Z,5.14
2023-03-07T15:38:23.293Z,5.05
2023-03-07T15:40:50.596Z,4.99
2023-03-07T15:43:25.637Z,4.91
2023-03-07T15:46:17.729Z,4.85
2023-03-07T15:48:51.992Z,4.75
2023-03-07T15:51:22.272Z,4.69
2023-03-07T15:54:01.033Z,4.64
2023-03-07T15:56:37.872Z,4.64
2023-03-07T15:59:27.019Z,4.63
2023-03-07T16:01:54.530Z,4.57
2023-03-07T16:04:38.697Z,4.52
2023-03-07T16:07:07.853Z,4.44
2023-03-07T16:09:34.790Z,4.39
2023-03-07T16:12:02.007Z,4.34
2023-03-07T16:14:35.026Z,4.31
2023-03-07T16:17:06.945Z,4.27
2023-03-07T16:19:33.821Z,4.20
2023-03-07T16:22:01.069Z,4.15
2023-03-07T16:24:28.030Z,4.12
2023-03-07T16:26:55.227Z,4.10
2023-03-07T16:29:23.405Z,4.08
2023-03-07T16:31:50.852Z,4.03
2023-03-07T16:34:20.130Z,3.99
2023-03-07T16:36:50.340Z,3.97
2023-03-07T16:39:18.558Z,3.95
2023-03-07T16:41:49.014Z,3.87
2023-03-07T16:44:18.039Z,3.85
2023-03-07T16:46:52.532Z,3.80
2023-03-07T16:49:20.532Z,3.77
2023-03-07T16:52:03.128Z,3.71
2023-03-07T16:54:32.474Z,3.62
2023-03-07T16:57:01.512Z,3.58
2023-03-07T16:59:35.536Z,3.54
2023-03-07T17:02:13.156Z,3.51
2023-03-07T17:04:40.091Z,3.52
2023-03-07T17:07:22.100Z,3.49
2023-03-07T17:09:49.890Z,3.45
2023-03-07T17:12:20.205Z,3.42
2023-03-07T17:14:47.187Z,3.42
2023-03-07T17:17:28.233Z,3.39
2023-03-07T17:19:55.153Z,3.40
2023-03-07T17:22:22.333Z,3.40
2023-03-07T17:24:49.212Z,3.40
2023-03-07T17:27:17.488Z,3.39
2023-03-07T17:29:52.030Z,3.38
2023-03-07T17:32:19.330Z,3.38
2023-03-07T17:34:47.127Z,3.35
2023-03-07T17:37:14.507Z,3.34
2023-03-07T17:39:42.781Z,3.31
2023-03-07T17:42:09.989Z,3.33
2023-03-07T17:44:37.135Z,3.32
2023-03-07T17:47:04.436Z,3.33
2023-03-07T17:49:36.570Z,3.31
2023-03-07T17:52:05.586Z,3.33
2023-03-07T17:54:32.996Z,3.31
2023-03-07T17:57:01.089Z,3.32
2023-03-07T17:59:28.093Z,3.31
2023-03-07T18:01:55.356Z,3.35
2023-03-07T18:04:22.225Z,3.34
2023-03-07T18:06:49.417Z,3.37
2023-03-07T18:09:18.825Z,3.41
2023-03-07T18:11:46.082Z,3.45
2023-03-07T18:14:13.342Z,3.51
2023-03-07T18:16:40.628Z,3.56
2023-03-07T18:19:14.267Z,3.59
2023-03-07T18:21:45.002Z,3.66
2023-03-07T18:24:26.613Z,3.67
2023-03-07T18:26:55.549Z,3.69
2023-03-07T18:29:23.516Z,3.69
2023-03-07T18:31:50.912Z,3.75
2023-03-07T18:34:17.842Z,3.71
2023-03-07T18:36:45.127Z,3.68
2023-03-07T18:39:12.137Z,3.68
2023-03-07T18:41:39.631Z,3.67
2023-03-07T18:44:06.524Z,3.70
2023-03-07T18:46:33.671Z,3.70
2023-03-07T18:49:01.133Z,3.71
2023-03-07T18:51:28.756Z,3.72
2023-03-07T18:54:01.258Z,3.73
2023-03-07T18:56:29.849Z,3.79
2023-03-07T18:59:01.154Z,3.79
2023-03-07T19:01:31.278Z,3.78
2023-03-07T19:04:02.156Z,3.78
2023-03-07T19:06:35.509Z,3.74
2023-03-07T19:09:03.805Z,3.76
2023-03-07T19:11:31.696Z,3.76
2023-03-07T19:13:58.691Z,3.74
2023-03-07T19:16:28.217Z,3.75
2023-03-07T19:18:55.739Z,3.72
2023-03-07T19:21:25.350Z,3.75
2023-03-07T19:23:53.945Z,3.74
2023-03-07T19:26:22.091Z,3.74
2023-03-07T19:28:55.008Z,3.77
2023-03-07T19:31:24.242Z,3.80
2023-03-07T19:33:52.538Z,3.79
2023-03-07T19:36:27.200Z,3.78
2023-03-07T19:38:56.546Z,3.78
2023-03-07T19:41:25.833Z,3.87
2023-03-07T19:43:52.962Z,3.88
2023-03-07T19:46:20.920Z,3.85
2023-03-07T19:48:48.502Z,3.89
2023-03-07T19:51:17.822Z,3.86
2023-03-07T19:53:45.800Z,3.85
2023-03-07T19:56:17.204Z,3.85
2023-03-07T19:58:44.129Z,3.85
2023-03-07T20:01:14.242Z,3.89
2023-03-07T20:03:41.303Z,3.93
2023-03-07T20:06:12.017Z,3.92
2023-03-07T20:08:39.044Z,3.95
2023-03-07T20:11:15.287Z,4.02
2023-03-07T20:13:43.673Z,4.01
2023-03-07T20:16:11.163Z,4.00
2023-03-07T20:18:39.155Z,3.96
2023-03-07T20:21:11.590Z,3.93
2023-03-07T20:23:38.831Z,3.94
2023-03-07T20:26:08.940Z,3.97
2023-03-07T20:28:36.370Z,3.99
2023-03-07T20:31:08.739Z,4.02
2023-03-07T20:33:37.106Z,4.04
2023-03-07T20:36:10.239Z,4.05
2023-03-07T20:38:38.618Z,4.05
2023-03-07T20:41:08.302Z,4.05
2023-03-07T20:43:35.637Z,4.04
2023-03-07T20:46:12.793Z,4.03
2023-03-07T20:48:41.278Z,4.01
2023-03-07T20:51:16.173Z,3.97
2023-03-07T20:53:43.099Z,3.94
2023-03-07T20:56:10.391Z,3.96
2023-03-07T20:58:37.361Z,3.95
2023-03-07T21:01:05.683Z,3.97
2023-03-07T21:03:32.773Z,3.99
2023-03-07T21:06:01.866Z,3.98
2023-03-07T21:08:30.588Z,3.94
2023-03-07T21:11:33.457Z,3.93
2023-03-07T21:14:00.583Z,3.93
2023-03-07T21:16:28.721Z,3.91
2023-03-07T21:19:01.603Z,3.90
2023-03-07T21:21:29.949Z,3.86
2023-03-07T21:23:56.845Z,3.87
2023-03-07T21:26:27.074Z,3.87
2023-03-07T21:28:54.726Z,3.88
2023-03-07T21:31:24.488Z,3.90
2023-03-07T21:33:56.329Z,3.95
2023-03-07T21:36:27.146Z,3.96
2023-03-07T21:38:54.919Z,3.96
2023-03-07T21:41:24.946Z,3.94
2023-03-07T21:43:53.588Z,3.94
2023-03-07T21:46:21.204Z,3.95
2023-03-07T21:48:48.207Z,3.98
2023-03-07T21:51:15.930Z,3.99
2023-03-07T21:53:42.837Z,3.96
2023-03-07T21:56:12.454Z,3.95
2023-03-07T21:58:40.294Z,3.96
2023-03-07T22:01:13.965Z,3.96
2023-03-07T22:03:41.681Z,3.96
2023-03-07T22:06:11.308Z,3.95
2023-03-07T22:08:38.828Z,3.95
2023-03-07T22:11:07.551Z,3.91
2023-03-07T22:13:35.980Z,3.88
2023-03-07T22:16:06.023Z,3.83
2023-03-07T22:18:33.390Z,3.83
2023-03-07T22:21:07.044Z,3.86
2023-03-07T22:23:34.140Z,3.89
2023-03-07T22:26:09.758Z,3.86
2023-03-07T22:28:37.174Z,3.91
2023-03-07T22:31:06.874Z,3.87
2023-03-07T22:33:34.034Z,3.81
2023-03-07T22:36:04.130Z,3.78
2023-03-07T22:38:31.547Z,3.75
2023-03-07T22:41:10.584Z,3.72
2023-03-07T22:43:38.304Z,3.71
2023-03-07T22:46:06.719Z,3.68
2023-03-07T22:48:33.910Z,3.64
2023-03-07T22:51:01.530Z,3.62
2023-03-07T22:53:30.973Z,3.64
2023-03-07T22:56:01.664Z,3.60
2023-03-07T22:58:29.372Z,3.63
2023-03-07T23:00:56.920Z,3.59
2023-03-07T23:03:23.901Z,3.58
2023-03-07T23:05:51.083Z,3.56
2023-03-07T23:08:18.013Z,3.53
2023-03-07T23:10:45.237Z,3.56
2023-03-07T23:13:12.170Z,3.56
2023-03-07T23:15:41.505Z,3.61
2023-03-07T23:18:08.317Z,3.61
2023-03-07T23:20:37.707Z,3.63
2023-03-07T23:23:04.812Z,3.69
2023-03-07T23:25:33.182Z,3.76
2023-03-07T23:28:00.146Z,3.80
2023-03-07T23:30:27.357Z,3.84
2023-03-07T23:32:55.265Z,3.85
2023-03-07T23:35:22.525Z,3.93
2023-03-07T23:37:49.434Z,3.95
2023-03-07T23:40:16.740Z,3.97
2023-03-07T23:42:43.930Z,4.05
2023-03-07T23:45:11.308Z,4.11
2023-03-07T23:47:39.614Z,4.18
2023-03-07T23:50:08.033Z,4.21
2023-03-07T23:52:35.031Z,4.23
2023-03-07T23:55:02.279Z,4.28
2023-03-07T23:57:29.298Z,4.29
2023-03-07T23:59:56.490Z,4.28
